sensor_id;sensor_type;location;lat;lon;timestamp;temperature;humidity
29007;DHT22;16104;48.642;9.008;2022-09-09T01:01:58;18.10;54.60
29007;DHT22;16104;48.642;9.008;2022-09-09T01:07:02;18.10;54.80
29007;DHT22;16104;48.642;9.008;2022-09-09T02:08:00;18.00;55.10
29007;DHT22;16104;48.642;9.008;2022-09-09T02:13:07;18.00;55.30
29007;DHT22;16104;48.642;9.008;2022-09-09T03:03:52;17.60;55.80
29007;DHT22;16104;48.642;9.008;2022-09-09T03:08:48;17.60;56.00
29007;DHT22;16104;48.642;9.008;2022-09-09T03:13:45;17.50;56.00
29007;DHT22;16104;48.642;9.008;2022-09-09T03:18:40;17.50;55.90
29007;DHT22;16104;48.642;9.008;2022-09-09T03:23:36;17.50;56.20
29007;DHT22;16104;48.642;9.008;2022-09-09T03:28:32;17.50;56.50
29007;DHT22;16104;48.642;9.008;2022-09-09T03:33:27;17.50;56.30
29007;DHT22;16104;48.642;9.008;2022-09-09T03:38:24;17.50;56.50
29007;DHT22;16104;48.642;9.008;2022-09-09T03:43:20;17.50;56.30
29007;DHT22;16104;48.642;9.008;2022-09-09T03:48:17;17.50;56.50
29007;DHT22;16104;48.642;9.008;2022-09-09T03:53:14;17.40;56.70
29007;DHT22;16104;48.642;9.008;2022-09-09T03:58:10;17.40;56.70
29007;DHT22;16104;48.642;9.008;2022-09-09T04:03:06;17.40;56.80
29007;DHT22;16104;48.642;9.008;2022-09-09T04:08:01;17.40;56.90
29007;DHT22;16104;48.642;9.008;2022-09-09T04:12:57;17.40;56.90
29007;DHT22;16104;48.642;9.008;2022-09-09T04:17:52;17.40;57.00
29007;DHT22;16104;48.642;9.008;2022-09-09T04:22:48;17.30;57.20
29007;DHT22;16104;48.642;9.008;2022-09-09T04:27:44;17.30;57.40
29007;DHT22;16104;48.642;9.008;2022-09-09T04:32:39;17.20;57.40
29007;DHT22;16104;48.642;9.008;2022-09-09T04:37:35;17.30;57.50
29007;DHT22;16104;48.642;9.008;2022-09-09T04:42:38;17.30;57.80
29007;DHT22;16104;48.642;9.008;2022-09-09T04:47:34;17.30;58.20
29007;DHT22;16104;48.642;9.008;2022-09-09T04:52:31;17.30;58.20
29007;DHT22;16104;48.642;9.008;2022-09-09T04:57:27;17.30;58.20
29007;DHT22;16104;48.642;9.008;2022-09-09T05:02:22;17.30;58.30
29007;DHT22;16104;48.642;9.008;2022-09-09T05:07:18;17.40;58.30
29007;DHT22;16104;48.642;9.008;2022-09-09T05:12:14;17.40;58.40
29007;DHT22;16104;48.642;9.008;2022-09-09T05:17:10;17.40;58.40
29007;DHT22;16104;48.642;9.008;2022-09-09T05:22:06;17.40;58.60
29007;DHT22;16104;48.642;9.008;2022-09-09T05:27:01;17.40;58.70
29007;DHT22;16104;48.642;9.008;2022-09-09T05:31:57;17.40;58.70
29007;DHT22;16104;48.642;9.008;2022-09-09T05:36:53;17.40;58.90
29007;DHT22;16104;48.642;9.008;2022-09-09T05:41:48;17.50;59.10
29007;DHT22;16104;48.642;9.008;2022-09-09T05:46:44;17.50;59.30
29007;DHT22;16104;48.642;9.008;2022-09-09T05:51:40;17.50;59.40
29007;DHT22;16104;48.642;9.008;2022-09-09T05:56:35;17.60;59.50
29007;DHT22;16104;48.642;9.008;2022-09-09T06:01:33;17.60;59.60
29007;DHT22;16104;48.642;9.008;2022-09-09T06:06:34;17.70;59.80
29007;DHT22;16104;48.642;9.008;2022-09-09T06:11:35;17.70;59.80
29007;DHT22;16104;48.642;9.008;2022-09-09T06:16:32;17.80;59.60
29007;DHT22;16104;48.642;9.008;2022-09-09T06:21:33;17.80;59.50
29007;DHT22;16104;48.642;9.008;2022-09-09T06:26:31;17.80;59.80
29007;DHT22;16104;48.642;9.008;2022-09-09T06:31:29;17.90;59.50
29007;DHT22;16104;48.642;9.008;2022-09-09T06:36:28;17.90;59.80
29007;DHT22;16104;48.642;9.008;2022-09-09T06:41:27;18.00;59.80
29007;DHT22;16104;48.642;9.008;2022-09-09T06:46:28;18.00;60.00
29007;DHT22;16104;48.642;9.008;2022-09-09T06:51:26;18.10;59.80
29007;DHT22;16104;48.642;9.008;2022-09-09T06:56:24;18.10;59.70
29007;DHT22;16104;48.642;9.008;2022-09-09T07:01:23;18.20;59.70
29007;DHT22;16104;48.642;9.008;2022-09-09T07:06:21;18.30;59.70
29007;DHT22;16104;48.642;9.008;2022-09-09T07:11:19;18.40;59.70
29007;DHT22;16104;48.642;9.008;2022-09-09T07:16:17;18.50;59.60
29007;DHT22;16104;48.642;9.008;2022-09-09T07:21:14;18.60;59.70
29007;DHT22;16104;48.642;9.008;2022-09-09T07:26:11;18.60;59.70
29007;DHT22;16104;48.642;9.008;2022-09-09T07:31:13;18.80;59.60
29007;DHT22;16104;48.642;9.008;2022-09-09T07:36:20;18.90;59.70
29007;DHT22;16104;48.642;9.008;2022-09-09T07:41:40;19.00;59.40
29007;DHT22;16104;48.642;9.008;2022-09-09T07:46:36;19.10;59.30
29007;DHT22;16104;48.642;9.008;2022-09-09T07:51:34;19.20;58.90
29007;DHT22;16104;48.642;9.008;2022-09-09T07:56:31;19.30;58.90
29007;DHT22;16104;48.642;9.008;2022-09-09T08:01:36;19.30;59.00
29007;DHT22;16104;48.642;9.008;2022-09-09T08:06:39;19.40;59.10
29007;DHT22;16104;48.642;9.008;2022-09-09T08:11:35;19.60;58.80
29007;DHT22;16104;48.642;9.008;2022-09-09T08:16:32;19.70;59.40
29007;DHT22;16104;48.642;9.008;2022-09-09T08:21:30;19.80;58.70
29007;DHT22;16104;48.642;9.008;2022-09-09T08:26:29;20.00;58.60
29007;DHT22;16104;48.642;9.008;2022-09-09T08:31:29;20.20;58.10
29007;DHT22;16104;48.642;9.008;2022-09-09T08:36:26;20.30;57.70
29007;DHT22;16104;48.642;9.008;2022-09-09T08:47:19;20.60;57.50
29007;DHT22;16104;48.642;9.008;2022-09-09T08:52:41;20.70;57.30
29007;DHT22;16104;48.642;9.008;2022-09-09T08:57:40;21.00;56.90
29007;DHT22;16104;48.642;9.008;2022-09-09T09:03:14;21.20;56.70
29007;DHT22;16104;48.642;9.008;2022-09-09T09:08:23;21.40;56.20
29007;DHT22;16104;48.642;9.008;2022-09-09T09:18:20;21.30;56.80
29007;DHT22;16104;48.642;9.008;2022-09-09T09:35:12;21.10;57.50
29007;DHT22;16104;48.642;9.008;2022-09-09T09:40:16;21.00;57.60
29007;DHT22;16104;48.642;9.008;2022-09-09T09:46:02;21.00;58.20
29007;DHT22;16104;48.642;9.008;2022-09-09T09:50:33;21.10;58.80
29007;DHT22;16104;48.642;9.008;2022-09-09T09:55:33;21.10;58.70
29007;DHT22;16104;48.642;9.008;2022-09-09T10:00:30;21.20;59.30
29007;DHT22;16104;48.642;9.008;2022-09-09T10:05:30;21.40;59.40
29007;DHT22;16104;48.642;9.008;2022-09-09T10:15:58;21.80;59.30
29007;DHT22;16104;48.642;9.008;2022-09-09T10:21:25;22.10;60.80
29007;DHT22;16104;48.642;9.008;2022-09-09T10:26:48;22.40;59.70
29007;DHT22;16104;48.642;9.008;2022-09-09T10:36:49;23.00;57.50
29007;DHT22;16104;48.642;9.008;2022-09-09T11:02:34;23.40;54.60
29007;DHT22;16104;48.642;9.008;2022-09-09T11:07:37;23.30;52.90
29007;DHT22;16104;48.642;9.008;2022-09-09T11:12:36;23.20;51.50
29007;DHT22;16104;48.642;9.008;2022-09-09T11:17:44;23.10;51.20
29007;DHT22;16104;48.642;9.008;2022-09-09T11:28:24;22.60;51.20
29007;DHT22;16104;48.642;9.008;2022-09-09T11:43:33;21.80;51.20
29007;DHT22;16104;48.642;9.008;2022-09-09T11:48:40;21.60;51.70
29007;DHT22;16104;48.642;9.008;2022-09-09T11:54:24;21.50;52.20
29007;DHT22;16104;48.642;9.008;2022-09-09T12:14:23;21.90;53.40
29007;DHT22;16104;48.642;9.008;2022-09-09T12:19:29;22.20;52.60
29007;DHT22;16104;48.642;9.008;2022-09-09T12:24:40;22.70;52.20
29007;DHT22;16104;48.642;9.008;2022-09-09T12:29:44;23.10;50.70
29007;DHT22;16104;48.642;9.008;2022-09-09T12:34:53;23.20;49.90
29007;DHT22;16104;48.642;9.008;2022-09-09T12:39:56;23.30;49.70
29007;DHT22;16104;48.642;9.008;2022-09-09T12:44:53;23.30;49.30
29007;DHT22;16104;48.642;9.008;2022-09-09T12:49:50;23.20;49.30
29007;DHT22;16104;48.642;9.008;2022-09-09T12:54:47;23.20;48.20
29007;DHT22;16104;48.642;9.008;2022-09-09T12:59:44;23.00;47.90
29007;DHT22;16104;48.642;9.008;2022-09-09T13:04:43;23.10;48.00
29007;DHT22;16104;48.642;9.008;2022-09-09T13:09:40;23.10;48.40
29007;DHT22;16104;48.642;9.008;2022-09-09T13:14:36;23.20;49.00
29007;DHT22;16104;48.642;9.008;2022-09-09T13:19:38;23.50;47.90
29007;DHT22;16104;48.642;9.008;2022-09-09T13:24:40;23.80;48.60
29007;DHT22;16104;48.642;9.008;2022-09-09T13:29:37;24.30;47.20
29007;DHT22;16104;48.642;9.008;2022-09-09T13:34:35;24.40;46.10
29007;DHT22;16104;48.642;9.008;2022-09-09T13:39:34;24.40;45.50
29007;DHT22;16104;48.642;9.008;2022-09-09T13:44:37;24.50;45.50
29007;DHT22;16104;48.642;9.008;2022-09-09T13:49:34;24.70;45.10
29007;DHT22;16104;48.642;9.008;2022-09-09T13:54:29;25.00;43.50
29007;DHT22;16104;48.642;9.008;2022-09-09T13:59:26;25.20;44.50
29007;DHT22;16104;48.642;9.008;2022-09-09T14:04:22;25.40;43.40
29007;DHT22;16104;48.642;9.008;2022-09-09T14:09:18;25.60;42.70
29007;DHT22;16104;48.642;9.008;2022-09-09T14:14:13;25.80;41.00
29007;DHT22;16104;48.642;9.008;2022-09-09T14:19:09;26.00;41.00
29007;DHT22;16104;48.642;9.008;2022-09-09T14:24:05;26.10;40.30
29007;DHT22;16104;48.642;9.008;2022-09-09T14:29:01;26.20;39.80
29007;DHT22;16104;48.642;9.008;2022-09-09T14:33:56;26.10;39.10
29007;DHT22;16104;48.642;9.008;2022-09-09T14:38:52;26.00;39.10
29007;DHT22;16104;48.642;9.008;2022-09-09T14:43:48;25.90;39.10
29007;DHT22;16104;48.642;9.008;2022-09-09T14:48:44;25.90;39.40
29007;DHT22;16104;48.642;9.008;2022-09-09T14:53:40;26.00;40.00
29007;DHT22;16104;48.642;9.008;2022-09-09T14:58:37;26.00;39.20
29007;DHT22;16104;48.642;9.008;2022-09-09T15:03:33;26.00;39.50
29007;DHT22;16104;48.642;9.008;2022-09-09T15:08:29;26.00;39.70
29007;DHT22;16104;48.642;9.008;2022-09-09T15:13:25;26.00;40.00
29007;DHT22;16104;48.642;9.008;2022-09-09T15:18:21;26.20;40.00
29007;DHT22;16104;48.642;9.008;2022-09-09T15:23:16;26.20;39.70
29007;DHT22;16104;48.642;9.008;2022-09-09T15:28:12;26.20;38.70
29007;DHT22;16104;48.642;9.008;2022-09-09T15:33:08;26.10;37.90
29007;DHT22;16104;48.642;9.008;2022-09-09T15:38:03;25.90;37.20
29007;DHT22;16104;48.642;9.008;2022-09-09T15:43:00;25.60;37.40
29007;DHT22;16104;48.642;9.008;2022-09-09T15:47:55;25.40;37.40
29007;DHT22;16104;48.642;9.008;2022-09-09T15:52:51;25.10;38.00
29007;DHT22;16104;48.642;9.008;2022-09-09T15:57:48;24.90;38.70
29007;DHT22;16104;48.642;9.008;2022-09-09T16:02:43;24.70;39.00
29007;DHT22;16104;48.642;9.008;2022-09-09T16:07:39;24.50;39.40
29007;DHT22;16104;48.642;9.008;2022-09-09T16:12:35;24.40;39.70
29007;DHT22;16104;48.642;9.008;2022-09-09T16:17:30;24.20;40.00
29007;DHT22;16104;48.642;9.008;2022-09-09T16:22:32;24.00;39.90
29007;DHT22;16104;48.642;9.008;2022-09-09T16:27:27;23.90;40.10
29007;DHT22;16104;48.642;9.008;2022-09-09T16:32:23;23.70;39.90
29007;DHT22;16104;48.642;9.008;2022-09-09T16:37:18;23.50;39.70
29007;DHT22;16104;48.642;9.008;2022-09-09T16:42:14;23.30;39.90
29007;DHT22;16104;48.642;9.008;2022-09-09T16:47:11;23.10;40.50
29007;DHT22;16104;48.642;9.008;2022-09-09T16:52:06;23.00;41.30
29007;DHT22;16104;48.642;9.008;2022-09-09T16:57:02;22.70;42.00
29007;DHT22;16104;48.642;9.008;2022-09-09T17:01:57;22.60;42.40
29007;DHT22;16104;48.642;9.008;2022-09-09T17:06:54;22.40;42.90
29007;DHT22;16104;48.642;9.008;2022-09-09T17:11:50;22.30;43.30
29007;DHT22;16104;48.642;9.008;2022-09-09T17:16:47;22.20;43.70
29007;DHT22;16104;48.642;9.008;2022-09-09T17:21:43;22.10;44.00
29007;DHT22;16104;48.642;9.008;2022-09-09T17:26:38;22.00;44.30
29007;DHT22;16104;48.642;9.008;2022-09-09T17:31:35;22.00;44.60
29007;DHT22;16104;48.642;9.008;2022-09-09T17:36:32;21.90;44.90
29007;DHT22;16104;48.642;9.008;2022-09-09T17:41:34;21.80;45.20
29007;DHT22;16104;48.642;9.008;2022-09-09T17:46:32;21.70;45.30
29007;DHT22;16104;48.642;9.008;2022-09-09T17:51:31;21.60;45.60
29007;DHT22;16104;48.642;9.008;2022-09-09T17:56:29;21.40;45.80
29007;DHT22;16104;48.642;9.008;2022-09-09T18:01:29;21.30;46.30
29007;DHT22;16104;48.642;9.008;2022-09-09T18:06:27;21.20;46.60
29007;DHT22;16104;48.642;9.008;2022-09-09T18:11:26;21.10;46.90
29007;DHT22;16104;48.642;9.008;2022-09-09T18:16:23;21.00;47.20
29007;DHT22;16104;48.642;9.008;2022-09-09T18:21:19;20.90;47.40
29007;DHT22;16104;48.642;9.008;2022-09-09T18:26:17;20.80;47.70
29007;DHT22;16104;48.642;9.008;2022-09-09T18:31:15;20.70;48.00
29007;DHT22;16104;48.642;9.008;2022-09-09T18:36:13;20.70;48.20
29007;DHT22;16104;48.642;9.008;2022-09-09T18:41:20;20.60;48.70
29007;DHT22;16104;48.642;9.008;2022-09-09T18:46:17;20.50;49.00
29007;DHT22;16104;48.642;9.008;2022-09-09T18:51:14;20.50;48.90
29007;DHT22;16104;48.642;9.008;2022-09-09T18:56:11;20.40;49.10
29007;DHT22;16104;48.642;9.008;2022-09-09T19:01:10;20.40;49.30
29007;DHT22;16104;48.642;9.008;2022-09-09T19:06:16;20.30;49.40
29007;DHT22;16104;48.642;9.008;2022-09-09T19:11:17;20.20;49.60
29007;DHT22;16104;48.642;9.008;2022-09-09T19:16:14;20.20;50.00
29007;DHT22;16104;48.642;9.008;2022-09-09T19:21:22;20.10;49.60
29007;DHT22;16104;48.642;9.008;2022-09-09T19:26:18;20.10;50.30
29007;DHT22;16104;48.642;9.008;2022-09-09T19:31:16;20.00;50.00
29007;DHT22;16104;48.642;9.008;2022-09-09T19:36:15;20.00;50.30
29007;DHT22;16104;48.642;9.008;2022-09-09T19:41:19;19.90;50.30
29007;DHT22;16104;48.642;9.008;2022-09-09T19:46:15;19.80;50.50
29007;DHT22;16104;48.642;9.008;2022-09-09T19:51:20;19.80;50.30
29007;DHT22;16104;48.642;9.008;2022-09-09T19:56:18;19.70;50.60
29007;DHT22;16104;48.642;9.008;2022-09-09T20:01:28;19.60;50.50
29007;DHT22;16104;48.642;9.008;2022-09-09T20:06:29;19.50;50.80
29007;DHT22;16104;48.642;9.008;2022-09-09T20:11:26;19.40;50.90
29007;DHT22;16104;48.642;9.008;2022-09-09T20:16:24;19.40;50.90
29007;DHT22;16104;48.642;9.008;2022-09-09T20:21:23;19.30;51.10
29007;DHT22;16104;48.642;9.008;2022-09-09T20:26:21;19.30;51.30
29007;DHT22;16104;48.642;9.008;2022-09-09T20:31:19;19.20;51.50
29007;DHT22;16104;48.642;9.008;2022-09-09T20:36:18;19.10;51.60
29007;DHT22;16104;48.642;9.008;2022-09-09T20:41:15;19.00;51.60
29007;DHT22;16104;48.642;9.008;2022-09-09T20:46:13;18.90;51.70
29007;DHT22;16104;48.642;9.008;2022-09-09T20:51:08;18.90;51.70
29007;DHT22;16104;48.642;9.008;2022-09-09T20:56:05;18.80;51.80
29007;DHT22;16104;48.642;9.008;2022-09-09T21:01:05;18.80;52.00
29007;DHT22;16104;48.642;9.008;2022-09-09T21:06:05;18.70;52.10
29007;DHT22;16104;48.642;9.008;2022-09-09T21:11:01;18.70;52.40
29007;DHT22;16104;48.642;9.008;2022-09-09T21:15:57;18.60;52.30
29007;DHT22;16104;48.642;9.008;2022-09-09T21:20:53;18.60;52.30
29007;DHT22;16104;48.642;9.008;2022-09-09T21:25:49;18.50;53.20
29007;DHT22;16104;48.642;9.008;2022-09-09T21:30:50;18.50;52.60
29007;DHT22;16104;48.642;9.008;2022-09-09T21:35:46;18.50;52.90
29007;DHT22;16104;48.642;9.008;2022-09-09T21:40:42;18.40;53.10
29007;DHT22;16104;48.642;9.008;2022-09-09T21:45:40;18.40;53.20
29007;DHT22;16104;48.642;9.008;2022-09-09T21:50:41;18.30;53.60
29007;DHT22;16104;48.642;9.008;2022-09-09T21:55:38;18.30;53.90
29007;DHT22;16104;48.642;9.008;2022-09-09T22:00:36;18.30;53.70
29007;DHT22;16104;48.642;9.008;2022-09-09T22:05:38;18.20;53.90
29007;DHT22;16104;48.642;9.008;2022-09-09T22:10:35;18.20;54.30
29007;DHT22;16104;48.642;9.008;2022-09-09T22:15:31;18.20;53.60
29007;DHT22;16104;48.642;9.008;2022-09-09T22:20:27;18.10;54.30
29007;DHT22;16104;48.642;9.008;2022-09-09T22:25:23;18.10;54.70
29007;DHT22;16104;48.642;9.008;2022-09-09T22:30:19;18.10;54.90
29007;DHT22;16104;48.642;9.008;2022-09-09T22:35:14;18.10;55.10
29007;DHT22;16104;48.642;9.008;2022-09-09T22:40:10;18.10;55.30
29007;DHT22;16104;48.642;9.008;2022-09-09T22:45:10;18.00;55.40
29007;DHT22;16104;48.642;9.008;2022-09-09T22:50:06;18.00;55.60
29007;DHT22;16104;48.642;9.008;2022-09-09T22:55:02;18.00;55.60
29007;DHT22;16104;48.642;9.008;2022-09-09T22:59:57;18.00;55.80
29007;DHT22;16104;48.642;9.008;2022-09-09T23:04:53;18.00;56.20
29007;DHT22;16104;48.642;9.008;2022-09-09T23:09:48;18.00;56.70
29007;DHT22;16104;48.642;9.008;2022-09-09T23:14:44;18.00;56.80
29007;DHT22;16104;48.642;9.008;2022-09-09T23:19:40;18.00;57.30
29007;DHT22;16104;48.642;9.008;2022-09-09T23:24:36;17.90;57.50
29007;DHT22;16104;48.642;9.008;2022-09-09T23:29:31;17.90;58.10
29007;DHT22;16104;48.642;9.008;2022-09-09T23:34:27;17.80;58.20
29007;DHT22;16104;48.642;9.008;2022-09-09T23:39:23;17.80;58.10
29007;DHT22;16104;48.642;9.008;2022-09-09T23:44:18;17.80;58.30
29007;DHT22;16104;48.642;9.008;2022-09-09T23:49:14;17.70;58.50
29007;DHT22;16104;48.642;9.008;2022-09-09T23:54:09;17.70;58.90
29007;DHT22;16104;48.642;9.008;2022-09-09T23:59:06;17.70;58.70
